sensor_id;sensor_type;location;lat;lon;timestamp;temperature;humidity
71117;SHT31;58775;46.992;9.518;2023-11-18T00:01:46;3.80;97.21
71117;SHT31;58775;46.992;9.518;2023-11-18T00:03:47;3.66;98.01
71117;SHT31;58775;46.992;9.518;2023-11-18T00:05:47;3.59;98.43
71117;SHT31;58775;46.992;9.518;2023-11-18T00:07:48;3.54;97.47
71117;SHT31;58775;46.992;9.518;2023-11-18T00:09:49;3.40;99.29
71117;SHT31;58775;46.992;9.518;2023-11-18T00:11:50;3.45;99.70
71117;SHT31;58775;46.992;9.518;2023-11-18T00:13:50;3.48;99.57
71117;SHT31;58775;46.992;9.518;2023-11-18T00:15:51;3.49;99.55
71117;SHT31;58775;46.992;9.518;2023-11-18T00:17:52;3.55;99.12
71117;SHT31;58775;46.992;9.518;2023-11-18T00:19:53;3.56;98.56
71117;SHT31;58775;46.992;9.518;2023-11-18T00:21:54;3.49;98.84
71117;SHT31;58775;46.992;9.518;2023-11-18T00:23:54;3.45;99.58
71117;SHT31;58775;46.992;9.518;2023-11-18T00:25:56;3.49;99.34
71117;SHT31;58775;46.992;9.518;2023-11-18T00:27:58;3.51;98.62
71117;SHT31;58775;46.992;9.518;2023-11-18T00:29:58;3.55;98.33
71117;SHT31;58775;46.992;9.518;2023-11-18T00:32:02;3.62;98.02
71117;SHT31;58775;46.992;9.518;2023-11-18T00:34:04;3.58;97.40
71117;SHT31;58775;46.992;9.518;2023-11-18T00:36:05;3.70;96.97
71117;SHT31;58775;46.992;9.518;2023-11-18T00:38:07;3.60;96.75
71117;SHT31;58775;46.992;9.518;2023-11-18T00:40:08;3.56;97.25
71117;SHT31;58775;46.992;9.518;2023-11-18T00:42:09;3.54;97.68
71117;SHT31;58775;46.992;9.518;2023-11-18T00:44:12;3.46;97.05
71117;SHT31;58775;46.992;9.518;2023-11-18T00:46:14;3.48;97.18
71117;SHT31;58775;46.992;9.518;2023-11-18T00:48:14;3.38;97.52
71117;SHT31;58775;46.992;9.518;2023-11-18T00:50:15;3.39;97.97
71117;SHT31;58775;46.992;9.518;2023-11-18T00:52:16;3.35;98.49
71117;SHT31;58775;46.992;9.518;2023-11-18T00:54:17;3.28;98.73
71117;SHT31;58775;46.992;9.518;2023-11-18T00:56:17;3.35;99.77
71117;SHT31;58775;46.992;9.518;2023-11-18T00:58:18;3.38;99.24
71117;SHT31;58775;46.992;9.518;2023-11-18T01:00:20;3.46;99.04
71117;SHT31;58775;46.992;9.518;2023-11-18T01:02:26;3.39;98.41
71117;SHT31;58775;46.992;9.518;2023-11-18T01:04:28;3.31;99.08
71117;SHT31;58775;46.992;9.518;2023-11-18T01:06:29;3.38;99.43
71117;SHT31;58775;46.992;9.518;2023-11-18T01:08:29;3.45;99.13
71117;SHT31;58775;46.992;9.518;2023-11-18T01:10:30;3.49;98.98
71117;SHT31;58775;46.992;9.518;2023-11-18T01:12:31;3.56;98.94
71117;SHT31;58775;46.992;9.518;2023-11-18T01:14:32;3.60;98.57
71117;SHT31;58775;46.992;9.518;2023-11-18T01:16:33;3.58;97.81
71117;SHT31;58775;46.992;9.518;2023-11-18T01:18:34;3.58;98.99
71117;SHT31;58775;46.992;9.518;2023-11-18T01:20:36;3.63;98.71
71117;SHT31;58775;46.992;9.518;2023-11-18T01:22:38;3.70;98.48
71117;SHT31;58775;46.992;9.518;2023-11-18T01:24:39;3.75;98.02
71117;SHT31;58775;46.992;9.518;2023-11-18T01:26:40;3.73;98.00
71117;SHT31;58775;46.992;9.518;2023-11-18T01:28:42;3.68;97.95
71117;SHT31;58775;46.992;9.518;2023-11-18T01:30:44;3.75;98.55
71117;SHT31;58775;46.992;9.518;2023-11-18T01:32:45;3.80;98.40
71117;SHT31;58775;46.992;9.518;2023-11-18T01:34:46;3.82;97.52
71117;SHT31;58775;46.992;9.518;2023-11-18T01:36:50;3.79;97.59
71117;SHT31;58775;46.992;9.518;2023-11-18T01:38:51;3.73;98.35
71117;SHT31;58775;46.992;9.518;2023-11-18T01:40:52;3.78;98.42
71117;SHT31;58775;46.992;9.518;2023-11-18T01:42:55;3.87;98.37
71117;SHT31;58775;46.992;9.518;2023-11-18T01:44:56;3.89;97.78
71117;SHT31;58775;46.992;9.518;2023-11-18T01:46:58;3.72;98.25
71117;SHT31;58775;46.992;9.518;2023-11-18T01:48:59;3.70;99.39
71117;SHT31;58775;46.992;9.518;2023-11-18T01:51:01;3.76;99.25
71117;SHT31;58775;46.992;9.518;2023-11-18T01:53:04;3.85;99.15
71117;SHT31;58775;46.992;9.518;2023-11-18T01:55:06;3.90;98.39
71117;SHT31;58775;46.992;9.518;2023-11-18T01:57:07;3.76;98.36
71117;SHT31;58775;46.992;9.518;2023-11-18T01:59:10;3.80;99.31
71117;SHT31;58775;46.992;9.518;2023-11-18T02:01:15;3.83;99.19
71117;SHT31;58775;46.992;9.518;2023-11-18T02:03:18;3.94;98.91
71117;SHT31;58775;46.992;9.518;2023-11-18T02:05:19;4.01;98.23
71117;SHT31;58775;46.992;9.518;2023-11-18T02:07:20;3.90;97.74
71117;SHT31;58775;46.992;9.518;2023-11-18T02:09:22;3.94;98.35
71117;SHT31;58775;46.992;9.518;2023-11-18T02:11:36;4.00;98.09
71117;SHT31;58775;46.992;9.518;2023-11-18T02:13:45;4.01;98.26
71117;SHT31;58775;46.992;9.518;2023-11-18T02:15:48;4.16;97.89
71117;SHT31;58775;46.992;9.518;2023-11-18T02:17:49;4.14;97.16
71117;SHT31;58775;46.992;9.518;2023-11-18T02:19:53;4.07;97.20
71117;SHT31;58775;46.992;9.518;2023-11-18T02:21:56;4.06;98.13
71117;SHT31;58775;46.992;9.518;2023-11-18T02:23:57;4.11;98.03
71117;SHT31;58775;46.992;9.518;2023-11-18T02:25:59;4.16;98.08
71117;SHT31;58775;46.992;9.518;2023-11-18T02:28:01;4.10;98.30
71117;SHT31;58775;46.992;9.518;2023-11-18T02:30:03;4.18;97.50
71117;SHT31;58775;46.992;9.518;2023-11-18T02:34:27;4.03;97.95
71117;SHT31;58775;46.992;9.518;2023-11-18T02:36:36;4.09;97.99
71117;SHT31;58775;46.992;9.518;2023-11-18T02:38:46;4.13;97.61
71117;SHT31;58775;46.992;9.518;2023-11-18T02:40:51;4.16;97.50
71117;SHT31;58775;46.992;9.518;2023-11-18T02:42:54;4.14;97.49
71117;SHT31;58775;46.992;9.518;2023-11-18T02:44:57;4.16;97.40
71117;SHT31;58775;46.992;9.518;2023-11-18T02:47:00;4.20;97.14
71117;SHT31;58775;46.992;9.518;2023-11-18T02:49:01;4.07;97.32
71117;SHT31;58775;46.992;9.518;2023-11-18T02:51:02;4.07;97.95
71117;SHT31;58775;46.992;9.518;2023-11-18T02:53:03;4.06;97.91
71117;SHT31;58775;46.992;9.518;2023-11-18T02:55:08;3.94;98.88
71117;SHT31;58775;46.992;9.518;2023-11-18T02:57:09;4.00;98.89
71117;SHT31;58775;46.992;9.518;2023-11-18T02:59:09;4.06;98.39
71117;SHT31;58775;46.992;9.518;2023-11-18T03:01:11;4.07;98.18
71117;SHT31;58775;46.992;9.518;2023-11-18T03:03:12;3.89;99.60
71117;SHT31;58775;46.992;9.518;2023-11-18T03:05:14;3.79;99.99
71117;SHT31;58775;46.992;9.518;2023-11-18T03:07:15;3.87;99.99
71117;SHT31;58775;46.992;9.518;2023-11-18T03:09:16;3.94;99.99
71117;SHT31;58775;46.992;9.518;2023-11-18T03:11:20;3.99;99.11
71117;SHT31;58775;46.992;9.518;2023-11-18T03:13:22;3.86;99.82
71117;SHT31;58775;46.992;9.518;2023-11-18T03:15:23;3.91;99.99
71117;SHT31;58775;46.992;9.518;2023-11-18T03:17:25;3.91;99.58
71117;SHT31;58775;46.992;9.518;2023-11-18T03:19:26;3.83;99.90
71117;SHT31;58775;46.992;9.518;2023-11-18T03:21:27;3.83;99.99
71117;SHT31;58775;46.992;9.518;2023-11-18T03:23:27;3.93;99.99
71117;SHT31;58775;46.992;9.518;2023-11-18T03:25:29;3.90;99.31
71117;SHT31;58775;46.992;9.518;2023-11-18T03:27:30;3.91;99.97
71117;SHT31;58775;46.992;9.518;2023-11-18T03:29:30;3.94;99.84
71117;SHT31;58775;46.992;9.518;2023-11-18T03:31:31;4.07;99.55
71117;SHT31;58775;46.992;9.518;2023-11-18T03:33:33;4.06;98.79
71117;SHT31;58775;46.992;9.518;2023-11-18T03:35:33;4.14;98.93
71117;SHT31;58775;46.992;9.518;2023-11-18T03:37:39;4.18;98.44
71117;SHT31;58775;46.992;9.518;2023-11-18T03:39:41;4.18;97.41
71117;SHT31;58775;46.992;9.518;2023-11-18T03:41:42;4.14;97.82
71117;SHT31;58775;46.992;9.518;2023-11-18T03:43:45;4.16;98.19
71117;SHT31;58775;46.992;9.518;2023-11-18T03:45:48;4.14;98.12
71117;SHT31;58775;46.992;9.518;2023-11-18T03:47:49;4.13;97.81
71117;SHT31;58775;46.992;9.518;2023-11-18T03:49:51;4.14;97.91
71117;SHT31;58775;46.992;9.518;2023-11-18T03:51:55;4.16;97.88
71117;SHT31;58775;46.992;9.518;2023-11-18T03:53:56;4.00;97.72
71117;SHT31;58775;46.992;9.518;2023-11-18T03:55:56;4.01;97.82
71117;SHT31;58775;46.992;9.518;2023-11-18T03:57:58;3.99;97.87
71117;SHT31;58775;46.992;9.518;2023-11-18T03:59:59;3.97;97.89
71117;SHT31;58775;46.992;9.518;2023-11-18T04:02:00;4.06;97.53
71117;SHT31;58775;46.992;9.518;2023-11-18T04:04:01;4.00;97.47
71117;SHT31;58775;46.992;9.518;2023-11-18T04:06:01;4.04;97.06
71117;SHT31;58775;46.992;9.518;2023-11-18T04:08:04;3.79;96.91
71117;SHT31;58775;46.992;9.518;2023-11-18T04:10:05;3.73;97.52
71117;SHT31;58775;46.992;9.518;2023-11-18T04:12:08;3.62;97.85
71117;SHT31;58775;46.992;9.518;2023-11-18T04:14:10;3.65;98.24
71117;SHT31;58775;46.992;9.518;2023-11-18T04:16:15;3.70;98.01
71117;SHT31;58775;46.992;9.518;2023-11-18T04:18:16;3.60;97.42
71117;SHT31;58775;46.992;9.518;2023-11-18T04:20:17;3.60;98.19
71117;SHT31;58775;46.992;9.518;2023-11-18T04:22:18;3.65;97.61
71117;SHT31;58775;46.992;9.518;2023-11-18T04:24:19;3.63;96.95
71117;SHT31;58775;46.992;9.518;2023-11-18T04:26:20;3.59;96.82
71117;SHT31;58775;46.992;9.518;2023-11-18T04:28:21;3.51;96.66
71117;SHT31;58775;46.992;9.518;2023-11-18T04:30:23;3.54;97.10
71117;SHT31;58775;46.992;9.518;2023-11-18T04:32:24;3.36;97.03
71117;SHT31;58775;46.992;9.518;2023-11-18T04:34:25;3.21;96.59
71117;SHT31;58775;46.992;9.518;2023-11-18T04:36:27;3.17;97.84
71117;SHT31;58775;46.992;9.518;2023-11-18T04:38:28;3.17;97.54
71117;SHT31;58775;46.992;9.518;2023-11-18T04:40:28;3.22;97.39
71117;SHT31;58775;46.992;9.518;2023-11-18T04:42:29;3.24;96.70
71117;SHT31;58775;46.992;9.518;2023-11-18T04:44:30;3.05;97.34
71117;SHT31;58775;46.992;9.518;2023-11-18T04:46:31;2.93;97.93
71117;SHT31;58775;46.992;9.518;2023-11-18T04:48:32;2.83;98.26
71117;SHT31;58775;46.992;9.518;2023-11-18T04:50:34;2.83;98.90
71117;SHT31;58775;46.992;9.518;2023-11-18T04:52:35;2.80;98.37
71117;SHT31;58775;46.992;9.518;2023-11-18T04:54:37;2.87;98.52
71117;SHT31;58775;46.992;9.518;2023-11-18T04:56:37;2.90;97.11
71117;SHT31;58775;46.992;9.518;2023-11-18T04:58:38;2.80;97.99
71117;SHT31;58775;46.992;9.518;2023-11-18T05:00:40;2.68;98.54
71117;SHT31;58775;46.992;9.518;2023-11-18T05:02:42;2.72;98.40
71117;SHT31;58775;46.992;9.518;2023-11-18T05:04:43;2.73;98.23
71117;SHT31;58775;46.992;9.518;2023-11-18T05:06:44;2.67;98.02
71117;SHT31;58775;46.992;9.518;2023-11-18T05:08:45;2.63;98.13
71117;SHT31;58775;46.992;9.518;2023-11-18T05:10:47;2.60;98.15
71117;SHT31;58775;46.992;9.518;2023-11-18T05:12:48;2.60;97.79
71117;SHT31;58775;46.992;9.518;2023-11-18T05:14:56;2.61;98.43
71117;SHT31;58775;46.992;9.518;2023-11-18T05:16:57;2.61;97.92
71117;SHT31;58775;46.992;9.518;2023-11-18T05:18:57;2.64;97.81
71117;SHT31;58775;46.992;9.518;2023-11-18T05:20:58;2.70;97.50
71117;SHT31;58775;46.992;9.518;2023-11-18T05:22:59;2.67;97.36
71117;SHT31;58775;46.992;9.518;2023-11-18T05:25:00;2.67;97.57
71117;SHT31;58775;46.992;9.518;2023-11-18T05:27:01;2.64;97.30
71117;SHT31;58775;46.992;9.518;2023-11-18T05:29:02;2.61;97.61
71117;SHT31;58775;46.992;9.518;2023-11-18T05:31:03;2.67;97.72
71117;SHT31;58775;46.992;9.518;2023-11-18T05:33:05;2.45;97.95
71117;SHT31;58775;46.992;9.518;2023-11-18T05:35:06;2.37;99.41
71117;SHT31;58775;46.992;9.518;2023-11-18T05:37:07;2.28;99.43
71117;SHT31;58775;46.992;9.518;2023-11-18T05:39:08;2.30;99.52
71117;SHT31;58775;46.992;9.518;2023-11-18T05:41:12;2.33;99.42
71117;SHT31;58775;46.992;9.518;2023-11-18T05:43:17;2.32;98.90
71117;SHT31;58775;46.992;9.518;2023-11-18T05:45:21;2.23;99.99
71117;SHT31;58775;46.992;9.518;2023-11-18T05:47:37;2.30;99.99
71117;SHT31;58775;46.992;9.518;2023-11-18T05:49:38;2.33;99.67
71117;SHT31;58775;46.992;9.518;2023-11-18T05:51:39;2.21;99.56
71117;SHT31;58775;46.992;9.518;2023-11-18T05:53:41;2.18;99.99
71117;SHT31;58775;46.992;9.518;2023-11-18T05:55:46;2.25;99.88
71117;SHT31;58775;46.992;9.518;2023-11-18T05:57:46;2.32;99.68
71117;SHT31;58775;46.992;9.518;2023-11-18T05:59:47;2.26;99.40
71117;SHT31;58775;46.992;9.518;2023-11-18T06:01:49;2.28;99.77
71117;SHT31;58775;46.992;9.518;2023-11-18T06:03:49;2.32;99.82
71117;SHT31;58775;46.992;9.518;2023-11-18T06:05:52;2.30;99.35
71117;SHT31;58775;46.992;9.518;2023-11-18T06:07:52;2.36;99.39
71117;SHT31;58775;46.992;9.518;2023-11-18T06:09:54;2.40;99.15
71117;SHT31;58775;46.992;9.518;2023-11-18T06:11:54;2.39;99.02
71117;SHT31;58775;46.992;9.518;2023-11-18T06:13:55;2.29;99.07
71117;SHT31;58775;46.992;9.518;2023-11-18T06:15:56;2.22;99.75
71117;SHT31;58775;46.992;9.518;2023-11-18T06:17:59;2.15;99.74
71117;SHT31;58775;46.992;9.518;2023-11-18T06:20:00;2.15;99.99
71117;SHT31;58775;46.992;9.518;2023-11-18T06:22:01;2.21;99.99
71117;SHT31;58775;46.992;9.518;2023-11-18T06:24:02;2.23;99.99
71117;SHT31;58775;46.992;9.518;2023-11-18T06:26:06;2.26;99.99
71117;SHT31;58775;46.992;9.518;2023-11-18T06:28:07;2.33;99.99
71117;SHT31;58775;46.992;9.518;2023-11-18T06:30:09;2.40;99.85
71117;SHT31;58775;46.992;9.518;2023-11-18T06:32:12;2.42;99.63
71117;SHT31;58775;46.992;9.518;2023-11-18T06:34:14;2.37;99.28
71117;SHT31;58775;46.992;9.518;2023-11-18T06:38:22;2.29;99.99
71117;SHT31;58775;46.992;9.518;2023-11-18T06:40:23;2.30;99.99
71117;SHT31;58775;46.992;9.518;2023-11-18T06:42:27;2.43;99.99
71117;SHT31;58775;46.992;9.518;2023-11-18T06:44:27;2.32;99.99
71117;SHT31;58775;46.992;9.518;2023-11-18T06:46:30;2.46;99.99
71117;SHT31;58775;46.992;9.518;2023-11-18T06:48:34;2.61;99.36
71117;SHT31;58775;46.992;9.518;2023-11-18T06:50:35;2.66;99.06
71117;SHT31;58775;46.992;9.518;2023-11-18T06:52:39;2.77;98.62
71117;SHT31;58775;46.992;9.518;2023-11-18T06:54:42;2.84;98.18
71117;SHT31;58775;46.992;9.518;2023-11-18T06:56:43;2.91;98.43
71117;SHT31;58775;46.992;9.518;2023-11-18T06:58:44;2.96;97.49
71117;SHT31;58775;46.992;9.518;2023-11-18T07:00:45;3.04;97.02
71117;SHT31;58775;46.992;9.518;2023-11-18T07:02:46;3.12;96.59
71117;SHT31;58775;46.992;9.518;2023-11-18T07:04:47;3.29;96.50
71117;SHT31;58775;46.992;9.518;2023-11-18T07:06:49;3.07;97.91
71117;SHT31;58775;46.992;9.518;2023-11-18T07:08:50;2.97;98.92
71117;SHT31;58775;46.992;9.518;2023-11-18T07:10:51;2.98;98.49
71117;SHT31;58775;46.992;9.518;2023-11-18T07:12:52;2.96;99.30
71117;SHT31;58775;46.992;9.518;2023-11-18T07:14:52;3.09;98.95
71117;SHT31;58775;46.992;9.518;2023-11-18T07:16:54;3.32;97.81
71117;SHT31;58775;46.992;9.518;2023-11-18T07:18:55;3.49;96.00
71117;SHT31;58775;46.992;9.518;2023-11-18T07:20:56;3.73;95.60
71117;SHT31;58775;46.992;9.518;2023-11-18T07:22:58;4.06;95.34
71117;SHT31;58775;46.992;9.518;2023-11-18T07:24:59;4.29;93.88
71117;SHT31;58775;46.992;9.518;2023-11-18T07:26:59;4.67;93.91
71117;SHT31;58775;46.992;9.518;2023-11-18T07:29:00;4.95;93.09
71117;SHT31;58775;46.992;9.518;2023-11-18T07:31:01;5.18;93.39
71117;SHT31;58775;46.992;9.518;2023-11-18T07:33:05;4.99;92.97
71117;SHT31;58775;46.992;9.518;2023-11-18T07:35:06;5.40;90.63
71117;SHT31;58775;46.992;9.518;2023-11-18T07:37:09;5.54;88.73
71117;SHT31;58775;46.992;9.518;2023-11-18T07:39:10;5.18;91.13
71117;SHT31;58775;46.992;9.518;2023-11-18T07:41:18;5.37;89.25
71117;SHT31;58775;46.992;9.518;2023-11-18T07:43:25;5.55;87.82
71117;SHT31;58775;46.992;9.518;2023-11-18T07:45:28;5.50;87.31
71117;SHT31;58775;46.992;9.518;2023-11-18T07:47:32;5.37;86.42
71117;SHT31;58775;46.992;9.518;2023-11-18T07:49:34;5.30;86.96
71117;SHT31;58775;46.992;9.518;2023-11-18T07:51:36;4.82;88.74
71117;SHT31;58775;46.992;9.518;2023-11-18T07:53:38;4.79;88.98
71117;SHT31;58775;46.992;9.518;2023-11-18T07:55:39;4.96;88.89
71117;SHT31;58775;46.992;9.518;2023-11-18T07:57:40;4.64;90.99
71117;SHT31;58775;46.992;9.518;2023-11-18T07:59:41;5.03;89.75
71117;SHT31;58775;46.992;9.518;2023-11-18T08:01:43;5.05;91.20
71117;SHT31;58775;46.992;9.518;2023-11-18T08:03:44;5.34;89.46
71117;SHT31;58775;46.992;9.518;2023-11-18T08:05:46;5.40;90.23
71117;SHT31;58775;46.992;9.518;2023-11-18T08:07:49;5.73;86.50
71117;SHT31;58775;46.992;9.518;2023-11-18T08:09:50;5.70;87.09
71117;SHT31;58775;46.992;9.518;2023-11-18T08:11:51;5.51;87.05
71117;SHT31;58775;46.992;9.518;2023-11-18T08:13:51;5.83;86.70
71117;SHT31;58775;46.992;9.518;2023-11-18T08:15:54;5.88;84.79
71117;SHT31;58775;46.992;9.518;2023-11-18T08:17:54;6.04;83.41
71117;SHT31;58775;46.992;9.518;2023-11-18T08:19:55;6.19;84.59
71117;SHT31;58775;46.992;9.518;2023-11-18T08:21:57;6.28;83.57
71117;SHT31;58775;46.992;9.518;2023-11-18T08:23:58;6.04;84.44
71117;SHT31;58775;46.992;9.518;2023-11-18T08:26:00;6.18;84.30
71117;SHT31;58775;46.992;9.518;2023-11-18T08:28:03;6.29;83.89
71117;SHT31;58775;46.992;9.518;2023-11-18T08:30:06;6.42;85.28
71117;SHT31;58775;46.992;9.518;2023-11-18T08:32:11;6.53;83.92
71117;SHT31;58775;46.992;9.518;2023-11-18T08:34:12;6.73;82.56
71117;SHT31;58775;46.992;9.518;2023-11-18T08:36:14;6.79;83.06
71117;SHT31;58775;46.992;9.518;2023-11-18T08:38:15;6.98;81.95
71117;SHT31;58775;46.992;9.518;2023-11-18T08:40:16;7.10;79.99
71117;SHT31;58775;46.992;9.518;2023-11-18T08:42:20;7.19;81.12
71117;SHT31;58775;46.992;9.518;2023-11-18T08:44:22;6.88;81.10
71117;SHT31;58775;46.992;9.518;2023-11-18T08:46:24;7.59;80.28
71117;SHT31;58775;46.992;9.518;2023-11-18T08:48:25;7.59;78.89
71117;SHT31;58775;46.992;9.518;2023-11-18T08:50:27;7.58;80.40
71117;SHT31;58775;46.992;9.518;2023-11-18T08:52:29;7.79;80.48
71117;SHT31;58775;46.992;9.518;2023-11-18T08:54:31;7.86;79.92
71117;SHT31;58775;46.992;9.518;2023-11-18T08:56:39;7.69;80.58
71117;SHT31;58775;46.992;9.518;2023-11-18T08:58:44;8.03;80.33
71117;SHT31;58775;46.992;9.518;2023-11-18T09:00:52;8.20;78.60
71117;SHT31;58775;46.992;9.518;2023-11-18T09:02:52;8.61;79.66
71117;SHT31;58775;46.992;9.518;2023-11-18T09:04:53;8.69;77.16
71117;SHT31;58775;46.992;9.518;2023-11-18T09:06:56;9.26;75.86
71117;SHT31;58775;46.992;9.518;2023-11-18T09:09:00;9.93;75.37
71117;SHT31;58775;46.992;9.518;2023-11-18T09:11:11;10.02;72.01
71117;SHT31;58775;46.992;9.518;2023-11-18T09:13:15;10.02;71.97
71117;SHT31;58775;46.992;9.518;2023-11-18T09:15:16;10.34;72.37
71117;SHT31;58775;46.992;9.518;2023-11-18T09:17:22;10.52;70.57
71117;SHT31;58775;46.992;9.518;2023-11-18T09:19:23;10.34;71.84
71117;SHT31;58775;46.992;9.518;2023-11-18T09:21:24;10.72;69.83
71117;SHT31;58775;46.992;9.518;2023-11-18T09:23:30;10.55;71.52
71117;SHT31;58775;46.992;9.518;2023-11-18T09:25:32;10.08;71.73
71117;SHT31;58775;46.992;9.518;2023-11-18T09:27:33;10.01;73.42
71117;SHT31;58775;46.992;9.518;2023-11-18T09:29:34;9.20;73.40
71117;SHT31;58775;46.992;9.518;2023-11-18T09:31:35;9.26;73.98
71117;SHT31;58775;46.992;9.518;2023-11-18T09:33:39;9.37;74.69
71117;SHT31;58775;46.992;9.518;2023-11-18T09:35:40;9.46;73.32
71117;SHT31;58775;46.992;9.518;2023-11-18T09:37:41;10.14;72.14
71117;SHT31;58775;46.992;9.518;2023-11-18T09:39:43;10.25;71.88
71117;SHT31;58775;46.992;9.518;2023-11-18T09:41:46;9.98;70.10
71117;SHT31;58775;46.992;9.518;2023-11-18T09:43:48;9.85;73.12
71117;SHT31;58775;46.992;9.518;2023-11-18T09:45:54;9.69;76.28
71117;SHT31;58775;46.992;9.518;2023-11-18T09:47:55;9.85;73.72
71117;SHT31;58775;46.992;9.518;2023-11-18T09:49:56;9.83;72.65
71117;SHT31;58775;46.992;9.518;2023-11-18T09:52:03;9.71;72.92
71117;SHT31;58775;46.992;9.518;2023-11-18T09:59:22;8.37;76.62
71117;SHT31;58775;46.992;9.518;2023-11-18T10:01:26;8.45;76.85
71117;SHT31;58775;46.992;9.518;2023-11-18T10:03:28;8.27;75.48
71117;SHT31;58775;46.992;9.518;2023-11-18T10:05:30;8.13;76.58
71117;SHT31;58775;46.992;9.518;2023-11-18T10:07:31;8.20;77.21
71117;SHT31;58775;46.992;9.518;2023-11-18T10:09:33;8.16;76.46
71117;SHT31;58775;46.992;9.518;2023-11-18T10:11:40;8.09;77.00
71117;SHT31;58775;46.992;9.518;2023-11-18T10:13:41;8.19;76.79
71117;SHT31;58775;46.992;9.518;2023-11-18T10:15:44;8.10;77.26
71117;SHT31;58775;46.992;9.518;2023-11-18T10:17:48;8.14;77.82
71117;SHT31;58775;46.992;9.518;2023-11-18T10:19:58;8.21;77.92
71117;SHT31;58775;46.992;9.518;2023-11-18T10:22:25;8.03;77.61
71117;SHT31;58775;46.992;9.518;2023-11-18T10:24:26;7.85;78.53
71117;SHT31;58775;46.992;9.518;2023-11-18T10:26:27;7.80;78.24
71117;SHT31;58775;46.992;9.518;2023-11-18T10:28:31;7.97;77.24
71117;SHT31;58775;46.992;9.518;2023-11-18T10:30:43;7.85;77.27
71117;SHT31;58775;46.992;9.518;2023-11-18T10:32:59;8.00;77.38
71117;SHT31;58775;46.992;9.518;2023-11-18T10:35:09;8.00;77.32
71117;SHT31;58775;46.992;9.518;2023-11-18T10:37:11;8.07;76.33
71117;SHT31;58775;46.992;9.518;2023-11-18T10:39:13;8.19;77.12
71117;SHT31;58775;46.992;9.518;2023-11-18T10:41:18;8.19;76.18
71117;SHT31;58775;46.992;9.518;2023-11-18T10:43:19;8.20;76.14
71117;SHT31;58775;46.992;9.518;2023-11-18T10:45:23;8.37;76.01
71117;SHT31;58775;46.992;9.518;2023-11-18T10:47:25;8.62;75.14
71117;SHT31;58775;46.992;9.518;2023-11-18T10:49:29;8.85;74.87
71117;SHT31;58775;46.992;9.518;2023-11-18T10:51:38;8.72;75.25
71117;SHT31;58775;46.992;9.518;2023-11-18T10:53:44;8.92;74.45
71117;SHT31;58775;46.992;9.518;2023-11-18T10:55:58;8.78;75.07
71117;SHT31;58775;46.992;9.518;2023-11-18T10:57:59;8.64;73.24
71117;SHT31;58775;46.992;9.518;2023-11-18T11:00:05;8.75;73.63
71117;SHT31;58775;46.992;9.518;2023-11-18T11:02:18;8.69;76.52
71117;SHT31;58775;46.992;9.518;2023-11-18T11:04:22;8.74;74.48
71117;SHT31;58775;46.992;9.518;2023-11-18T11:06:26;8.71;74.04
71117;SHT31;58775;46.992;9.518;2023-11-18T11:08:31;8.58;75.34
71117;SHT31;58775;46.992;9.518;2023-11-18T11:10:32;8.71;74.68
71117;SHT31;58775;46.992;9.518;2023-11-18T11:12:37;8.68;73.22
71117;SHT31;58775;46.992;9.518;2023-11-18T11:15:13;8.57;73.60
71117;SHT31;58775;46.992;9.518;2023-11-18T11:17:23;8.43;74.87
71117;SHT31;58775;46.992;9.518;2023-11-18T11:19:33;8.57;75.30
71117;SHT31;58775;46.992;9.518;2023-11-18T11:21:50;8.58;74.19
71117;SHT31;58775;46.992;9.518;2023-11-18T11:24:11;8.51;73.68
71117;SHT31;58775;46.992;9.518;2023-11-18T11:28:21;8.60;74.16
71117;SHT31;58775;46.992;9.518;2023-11-18T11:30:23;8.54;75.75
71117;SHT31;58775;46.992;9.518;2023-11-18T11:32:29;8.64;75.14
71117;SHT31;58775;46.992;9.518;2023-11-18T11:34:32;8.54;74.70
71117;SHT31;58775;46.992;9.518;2023-11-18T11:36:41;8.54;74.72
71117;SHT31;58775;46.992;9.518;2023-11-18T11:38:43;8.41;74.73
71117;SHT31;58775;46.992;9.518;2023-11-18T11:40:48;8.40;75.67
71117;SHT31;58775;46.992;9.518;2023-11-18T11:42:50;8.54;74.64
71117;SHT31;58775;46.992;9.518;2023-11-18T11:44:56;8.61;74.69
71117;SHT31;58775;46.992;9.518;2023-11-18T11:46:59;8.71;74.86
71117;SHT31;58775;46.992;9.518;2023-11-18T11:49:02;8.76;75.20
71117;SHT31;58775;46.992;9.518;2023-11-18T11:51:36;8.81;73.92
71117;SHT31;58775;46.992;9.518;2023-11-18T11:53:41;8.95;73.89
71117;SHT31;58775;46.992;9.518;2023-11-18T11:55:53;8.81;75.47
71117;SHT31;58775;46.992;9.518;2023-11-18T11:57:55;8.91;72.82
71117;SHT31;58775;46.992;9.518;2023-11-18T11:59:59;8.92;72.90
71117;SHT31;58775;46.992;9.518;2023-11-18T12:02:02;8.93;71.62
71117;SHT31;58775;46.992;9.518;2023-11-18T12:04:10;8.96;72.00
71117;SHT31;58775;46.992;9.518;2023-11-18T12:06:21;8.95;70.42
71117;SHT31;58775;46.992;9.518;2023-11-18T12:08:24;9.03;71.45
71117;SHT31;58775;46.992;9.518;2023-11-18T12:10:31;9.11;72.45
71117;SHT31;58775;46.992;9.518;2023-11-18T12:12:32;9.03;74.10
71117;SHT31;58775;46.992;9.518;2023-11-18T12:14:49;9.09;73.19
71117;SHT31;58775;46.992;9.518;2023-11-18T12:17:05;8.98;72.12
71117;SHT31;58775;46.992;9.518;2023-11-18T12:19:31;8.93;72.66
71117;SHT31;58775;46.992;9.518;2023-11-18T12:21:54;8.72;73.03
71117;SHT31;58775;46.992;9.518;2023-11-18T12:24:15;8.74;72.76
71117;SHT31;58775;46.992;9.518;2023-11-18T12:26:38;8.68;72.88
71117;SHT31;58775;46.992;9.518;2023-11-18T12:28:40;8.58;74.07
71117;SHT31;58775;46.992;9.518;2023-11-18T12:30:46;8.67;73.59
71117;SHT31;58775;46.992;9.518;2023-11-18T12:33:02;8.62;73.27
71117;SHT31;58775;46.992;9.518;2023-11-18T12:35:10;8.52;72.96
71117;SHT31;58775;46.992;9.518;2023-11-18T12:37:49;8.62;73.02
71117;SHT31;58775;46.992;9.518;2023-11-18T12:43:01;8.81;74.54
71117;SHT31;58775;46.992;9.518;2023-11-18T12:45:54;8.67;75.41
71117;SHT31;58775;46.992;9.518;2023-11-18T12:48:06;8.69;75.41
71117;SHT31;58775;46.992;9.518;2023-11-18T12:50:12;8.88;74.62
71117;SHT31;58775;46.992;9.518;2023-11-18T12:52:24;8.81;77.27
71117;SHT31;58775;46.992;9.518;2023-11-18T12:54:27;8.91;75.00
71117;SHT31;58775;46.992;9.518;2023-11-18T12:56:29;9.09;73.64
71117;SHT31;58775;46.992;9.518;2023-11-18T12:58:30;9.08;73.63
71117;SHT31;58775;46.992;9.518;2023-11-18T13:00:34;9.02;73.35
71117;SHT31;58775;46.992;9.518;2023-11-18T13:02:36;8.93;75.10
71117;SHT31;58775;46.992;9.518;2023-11-18T13:04:40;9.08;73.87
71117;SHT31;58775;46.992;9.518;2023-11-18T13:06:41;9.09;73.97
71117;SHT31;58775;46.992;9.518;2023-11-18T13:08:43;9.09;74.03
71117;SHT31;58775;46.992;9.518;2023-11-18T13:10:44;9.15;73.70
71117;SHT31;58775;46.992;9.518;2023-11-18T13:12:45;9.23;73.39
71117;SHT31;58775;46.992;9.518;2023-11-18T13:14:47;9.13;73.49
71117;SHT31;58775;46.992;9.518;2023-11-18T13:16:48;9.25;73.79
71117;SHT31;58775;46.992;9.518;2023-11-18T13:18:50;9.11;73.06
71117;SHT31;58775;46.992;9.518;2023-11-18T13:20:58;9.05;72.94
71117;SHT31;58775;46.992;9.518;2023-11-18T13:22:59;8.86;74.95
71117;SHT31;58775;46.992;9.518;2023-11-18T13:25:01;8.86;74.66
71117;SHT31;58775;46.992;9.518;2023-11-18T13:27:05;8.71;76.83